createdAt,value
2023-02-05T00:00:18.840Z,4.29
2023-02-05T00:02:45.306Z,4.24
2023-02-05T00:05:12.876Z,4.25
2023-02-05T00:07:39.249Z,4.25
2023-02-05T00:10:06.256Z,4.29
2023-02-05T00:12:32.689Z,4.28
2023-02-05T00:14:59.202Z,4.27
2023-02-05T00:17:25.597Z,4.26
2023-02-05T00:19:52.098Z,4.25
2023-02-05T00:22:18.478Z,4.31
2023-02-05T00:24:45.026Z,4.33
2023-02-05T00:27:11.424Z,4.30
2023-02-05T00:29:38.052Z,4.26
2023-02-05T00:32:04.612Z,4.22
2023-02-05T00:34:31.135Z,4.34
2023-02-05T00:36:57.555Z,4.40
2023-02-05T00:39:24.054Z,4.42
2023-02-05T00:41:50.467Z,4.42
2023-02-05T00:44:17.056Z,4.45
2023-02-05T00:46:43.587Z,4.37
2023-02-05T00:49:10.235Z,4.41
2023-02-05T00:51:36.730Z,4.40
2023-02-05T00:54:03.268Z,4.43
2023-02-05T00:56:29.666Z,4.45
2023-02-05T00:58:57.502Z,4.43
2023-02-05T01:01:24.926Z,4.46
2023-02-05T01:03:51.489Z,4.43
2023-02-05T01:06:18.267Z,4.41
2023-02-05T01:08:44.727Z,4.39
2023-02-05T01:11:11.445Z,4.41
2023-02-05T01:13:38.789Z,4.30
2023-02-05T01:16:05.910Z,4.26
2023-02-05T01:18:32.502Z,4.27
2023-02-05T01:20:59.265Z,4.27
2023-02-05T01:23:25.919Z,4.25
2023-02-05T01:25:52.447Z,4.21
2023-02-05T01:28:19.018Z,4.25
2023-02-05T01:30:49.826Z,4.31
2023-02-05T01:33:17.338Z,4.31
2023-02-05T01:35:44.876Z,4.33
2023-02-05T01:38:12.466Z,4.24
2023-02-05T01:40:39.492Z,4.24
2023-02-05T01:43:12.175Z,4.24
2023-02-05T01:46:22.852Z,4.39
2023-02-05T01:48:52.531Z,4.35
2023-02-05T01:51:20.310Z,4.38
2023-02-05T01:53:48.696Z,4.33
2023-02-05T01:56:21.691Z,4.35
2023-02-05T01:58:58.929Z,4.31
2023-02-05T02:01:27.665Z,4.27
2023-02-05T02:03:57.054Z,4.25
2023-02-05T02:06:23.611Z,4.25
2023-02-05T02:08:50.012Z,4.26
2023-02-05T02:11:20.105Z,4.30
2023-02-05T02:13:48.834Z,4.34
2023-02-05T02:16:16.305Z,4.34
2023-02-05T02:18:43.297Z,4.36
2023-02-05T02:21:38.285Z,4.36
2023-02-05T02:24:14.038Z,4.29
2023-02-05T02:27:14.479Z,4.21
2023-02-05T02:29:44.748Z,4.17
2023-02-05T02:32:21.994Z,4.13
2023-02-05T02:34:52.935Z,4.05
2023-02-05T02:37:49.635Z,4.07
2023-02-05T02:40:23.425Z,4.09
2023-02-05T02:43:07.134Z,4.10
2023-02-05T02:45:38.250Z,4.07
2023-02-05T02:48:07.131Z,3.98
2023-02-05T02:50:37.311Z,3.93
2023-02-05T02:53:26.948Z,3.97
2023-02-05T02:55:55.977Z,3.97
2023-02-05T02:58:34.827Z,3.98
2023-02-05T03:01:03.983Z,4.01
2023-02-05T03:03:36.789Z,3.98
2023-02-05T03:06:06.608Z,3.90
2023-02-05T03:08:52.842Z,3.84
2023-02-05T03:11:19.402Z,3.82
2023-02-05T03:13:46.677Z,3.89
2023-02-05T03:16:15.444Z,3.82
2023-02-05T03:18:42.609Z,3.70
2023-02-05T03:21:23.976Z,3.69
2023-02-05T03:23:50.865Z,3.69
2023-02-05T03:26:23.693Z,3.75
2023-02-05T03:28:50.769Z,3.70
2023-02-05T03:31:25.305Z,3.75
2023-02-05T03:33:58.775Z,3.77
2023-02-05T03:36:40.458Z,3.84
2023-02-05T03:39:18.782Z,3.89
2023-02-05T03:42:05.034Z,3.86
2023-02-05T03:44:52.220Z,3.83
2023-02-05T03:47:50.620Z,3.98
2023-02-05T03:50:30.188Z,3.91
2023-02-05T03:53:36.062Z,3.69
2023-02-05T03:56:29.307Z,3.65
2023-02-05T03:58:57.577Z,3.69
2023-02-05T04:01:24.980Z,3.75
2023-02-05T04:03:51.748Z,3.78
2023-02-05T04:06:18.301Z,3.75
2023-02-05T04:08:44.863Z,3.73
2023-02-05T04:11:11.851Z,3.75
2023-02-05T04:13:38.345Z,3.77
2023-02-05T04:16:06.302Z,3.78
2023-02-05T04:18:32.739Z,3.73
2023-02-05T04:20:59.943Z,3.72
2023-02-05T04:23:26.543Z,3.72
2023-02-05T04:25:54.543Z,3.75
2023-02-05T04:28:21.120Z,3.74
2023-02-05T04:30:47.771Z,3.75
2023-02-05T04:33:14.441Z,3.79
2023-02-05T04:35:40.827Z,3.78
2023-02-05T04:38:07.366Z,3.76
2023-02-05T04:40:33.959Z,3.75
2023-02-05T04:43:00.383Z,3.78
2023-02-05T04:45:30.857Z,3.80
2023-02-05T04:47:59.455Z,3.81
2023-02-05T04:50:26.318Z,3.81
2023-02-05T04:52:52.894Z,3.85
2023-02-05T04:55:19.306Z,3.85
2023-02-05T04:57:45.834Z,3.83
2023-02-05T05:00:13.007Z,3.86
2023-02-05T05:02:39.440Z,3.89
2023-02-05T05:05:06.965Z,3.88
2023-02-05T05:07:33.438Z,3.87
2023-02-05T05:09:59.977Z,3.81
2023-02-05T05:12:26.357Z,3.71
2023-02-05T05:14:53.850Z,3.73
2023-02-05T05:17:20.236Z,3.76
2023-02-05T05:19:46.728Z,3.79
2023-02-05T05:22:13.118Z,3.81
2023-02-05T05:24:39.598Z,3.85
2023-02-05T05:27:06.072Z,3.87
2023-02-05T05:29:32.599Z,3.92
2023-02-05T05:31:59.108Z,3.91
2023-02-05T05:34:25.604Z,3.91
2023-02-05T05:36:53.359Z,3.87
2023-02-05T05:39:38.524Z,3.88
2023-02-05T05:42:23.954Z,3.88
2023-02-05T05:44:52.114Z,3.86
2023-02-05T05:47:19.213Z,3.87
2023-02-05T05:49:45.981Z,3.86
2023-02-05T05:52:12.516Z,3.85
2023-02-05T05:54:38.977Z,3.87
2023-02-05T05:57:07.444Z,3.86
2023-02-05T05:59:34.348Z,3.86
2023-02-05T06:02:02.183Z,3.98
2023-02-05T06:04:29.006Z,3.90
2023-02-05T06:06:55.496Z,3.89
2023-02-05T06:09:21.919Z,3.91
2023-02-05T06:11:48.748Z,3.99
2023-02-05T06:14:16.332Z,3.94
2023-02-05T06:16:42.945Z,3.87
2023-02-05T06:19:09.412Z,3.84
2023-02-05T06:21:35.904Z,3.82
2023-02-05T06:24:02.380Z,3.89
2023-02-05T06:26:28.824Z,3.96
2023-02-05T06:28:57.171Z,4.05
2023-02-05T06:31:24.052Z,4.20
2023-02-05T06:33:50.640Z,4.12
2023-02-05T06:36:17.032Z,4.15
2023-02-05T06:38:43.622Z,4.06
2023-02-05T06:41:09.967Z,4.10
2023-02-05T06:43:36.532Z,4.12
2023-02-05T06:46:03.015Z,4.13
2023-02-05T06:48:29.629Z,4.18
2023-02-05T06:50:56.061Z,4.19
2023-02-05T06:53:23.022Z,4.19
2023-02-05T06:55:49.695Z,4.21
2023-02-05T06:58:16.354Z,4.22
2023-02-05T07:00:42.984Z,4.27
2023-02-05T07:03:09.601Z,4.28
2023-02-05T07:05:36.424Z,4.29
2023-02-05T07:08:04.099Z,4.29
2023-02-05T07:10:30.716Z,4.35
2023-02-05T07:12:57.372Z,4.35
2023-02-05T07:15:23.760Z,4.38
2023-02-05T07:17:50.584Z,4.34
2023-02-05T07:20:18.670Z,4.30
2023-02-05T07:22:47.033Z,4.32
2023-02-05T07:25:13.419Z,4.28
2023-02-05T07:27:39.873Z,4.27
2023-02-05T07:30:08.127Z,4.26
2023-02-05T07:32:34.483Z,4.30
2023-02-05T07:35:01.236Z,4.33
2023-02-05T07:37:27.662Z,4.48
2023-02-05T07:39:55.195Z,4.51
2023-02-05T07:42:21.647Z,4.59
2023-02-05T07:44:48.061Z,4.73
2023-02-05T07:47:14.603Z,4.77
2023-02-05T07:49:41.031Z,4.81
2023-02-05T07:52:07.611Z,4.89
2023-02-05T07:54:34.034Z,4.86
2023-02-05T07:57:02.053Z,5.02
2023-02-05T07:59:28.570Z,5.03
2023-02-05T08:01:55.179Z,5.21
2023-02-05T08:04:22.094Z,5.15
2023-02-05T08:06:48.624Z,5.18
2023-02-05T08:09:16.671Z,5.19
2023-02-05T08:11:44.265Z,5.26
2023-02-05T08:14:10.691Z,5.28
2023-02-05T08:16:37.183Z,5.28
2023-02-05T08:19:04.035Z,5.31
2023-02-05T08:21:30.552Z,5.39
2023-02-05T08:23:58.445Z,5.44
2023-02-05T08:26:24.966Z,5.41
2023-02-05T08:28:51.348Z,5.44
2023-02-05T08:31:19.189Z,5.49
2023-02-05T08:33:47.717Z,5.44
2023-02-05T08:36:14.299Z,5.50
2023-02-05T08:38:40.777Z,5.57
2023-02-05T08:41:15.537Z,5.56
2023-02-05T08:43:44.757Z,5.54
2023-02-05T08:46:14.979Z,5.54
2023-02-05T08:48:41.765Z,5.47
2023-02-05T08:51:14.147Z,5.48
2023-02-05T08:53:40.916Z,5.37
2023-02-05T08:56:10.434Z,5.37
2023-02-05T08:58:37.813Z,5.42
2023-02-05T09:01:06.997Z,5.34
2023-02-05T09:03:34.110Z,5.29
2023-02-05T09:06:01.558Z,5.31
2023-02-05T09:08:29.867Z,5.29
2023-02-05T09:10:57.564Z,5.26
2023-02-05T09:13:25.363Z,5.32
2023-02-05T09:15:51.929Z,5.30
2023-02-05T09:18:18.450Z,5.38
2023-02-05T09:20:47.232Z,5.30
2023-02-05T09:23:16.341Z,5.31
2023-02-05T09:25:43.317Z,5.33
2023-02-05T09:28:12.322Z,5.42
2023-02-05T09:30:41.280Z,5.37
2023-02-05T09:33:08.746Z,5.45
2023-02-05T09:35:36.072Z,5.35
2023-02-05T09:38:03.281Z,5.38
2023-02-05T09:40:50.256Z,5.38
2023-02-05T09:43:29.001Z,5.43
2023-02-05T09:46:08.300Z,5.34
2023-02-05T09:48:53.610Z,5.38
2023-02-05T09:51:32.834Z,5.47
2023-02-05T09:54:05.581Z,5.37
2023-02-05T09:56:33.306Z,5.39
2023-02-05T09:59:00.520Z,5.34
2023-02-05T10:01:36.555Z,5.34
2023-02-05T10:04:06.046Z,5.37
2023-02-05T10:06:53.440Z,5.36
2023-02-05T10:09:34.343Z,5.35
2023-02-05T10:12:39.117Z,5.31
2023-02-05T10:15:15.046Z,5.33
2023-02-05T10:18:03.189Z,5.32
2023-02-05T10:20:41.360Z,5.31
2023-02-05T10:23:17.274Z,5.24
2023-02-05T10:25:49.971Z,5.28
2023-02-05T10:28:25.365Z,5.25
2023-02-05T10:31:02.533Z,5.26
2023-02-05T10:33:47.982Z,5.19
2023-02-05T10:36:15.653Z,5.23
2023-02-05T10:38:44.785Z,5.26
2023-02-05T10:41:22.754Z,5.23
2023-02-05T10:43:53.372Z,5.34
2023-02-05T10:46:20.181Z,5.28
2023-02-05T10:48:56.872Z,5.33
2023-02-05T10:51:32.593Z,5.23
2023-02-05T10:54:00.992Z,5.24
2023-02-05T10:56:27.683Z,5.18
2023-02-05T10:58:56.801Z,5.15
2023-02-05T11:01:29.411Z,5.10
2023-02-05T11:04:01.739Z,5.15
2023-02-05T11:06:32.877Z,5.14
2023-02-05T11:08:59.734Z,5.20
2023-02-05T11:11:31.250Z,5.09
2023-02-05T11:14:01.034Z,4.98
2023-02-05T11:16:43.294Z,5.07
2023-02-05T11:19:21.964Z,5.02
2023-02-05T11:21:59.951Z,5.11
2023-02-05T11:24:39.414Z,5.14
2023-02-05T11:27:26.900Z,5.08
2023-02-05T11:29:55.401Z,5.14
2023-02-05T11:32:30.773Z,5.18
2023-02-05T11:35:29.022Z,5.14
2023-02-05T11:38:29.620Z,5.16
2023-02-05T11:40:59.602Z,5.21
2023-02-05T11:43:35.833Z,5.16
2023-02-05T11:46:06.726Z,5.19
2023-02-05T11:48:54.628Z,5.29
2023-02-05T11:51:40.639Z,5.39
2023-02-05T11:54:31.746Z,5.32
2023-02-05T11:57:19.976Z,5.37
2023-02-05T12:00:09.442Z,5.39
2023-02-05T12:02:38.492Z,5.48
2023-02-05T12:05:23.870Z,5.45
2023-02-05T12:08:13.708Z,5.66
2023-02-05T12:11:00.771Z,5.68
2023-02-05T12:13:54.257Z,5.62
2023-02-05T12:16:48.212Z,5.56
2023-02-05T12:19:17.568Z,5.52
2023-02-05T12:22:31.704Z,5.38
2023-02-05T12:25:49.638Z,5.37
2023-02-05T12:28:40.684Z,5.26
2023-02-05T12:31:32.055Z,5.38
2023-02-05T12:34:17.736Z,5.29
2023-02-05T12:36:53.500Z,5.38
2023-02-05T12:39:44.501Z,5.21
2023-02-05T12:42:43.825Z,5.26
2023-02-05T12:45:36.966Z,5.30
2023-02-05T12:48:15.809Z,5.24
2023-02-05T12:51:09.907Z,5.20
2023-02-05T12:53:44.625Z,5.28
2023-02-05T12:56:35.129Z,5.24
2023-02-05T12:59:13.547Z,5.30
2023-02-05T13:01:46.399Z,5.24
2023-02-05T13:04:25.384Z,5.28
2023-02-05T13:06:58.011Z,5.26
2023-02-05T13:09:35.237Z,5.31
2023-02-05T13:12:07.198Z,5.34
2023-02-05T13:14:44.792Z,5.33
2023-02-05T13:17:28.098Z,5.26
2023-02-05T13:19:59.282Z,5.30
2023-02-05T13:22:49.175Z,5.23
2023-02-05T13:25:37.933Z,5.21
2023-02-05T13:28:55.434Z,5.21
2023-02-05T13:31:30.689Z,5.32
2023-02-05T13:34:04.100Z,5.31
2023-02-05T13:36:42.630Z,5.26
2023-02-05T13:39:34.634Z,5.23
2023-02-05T13:42:12.792Z,5.21
2023-02-05T13:45:01.391Z,5.21
2023-02-05T13:47:49.510Z,5.23
2023-02-05T13:50:28.086Z,5.30
2023-02-05T13:53:08.463Z,5.28
2023-02-05T13:56:12.404Z,5.25
2023-02-05T13:58:49.624Z,5.21
2023-02-05T14:01:25.502Z,5.28
2023-02-05T14:04:00.616Z,5.28
2023-02-05T14:06:29.620Z,5.34
2023-02-05T14:09:00.893Z,5.29
2023-02-05T14:11:28.506Z,5.33
2023-02-05T14:14:37.671Z,5.41
2023-02-05T14:17:32.583Z,5.38
2023-02-05T14:20:01.090Z,5.32
2023-02-05T14:22:38.447Z,5.38
2023-02-05T14:25:35.575Z,5.40
2023-02-05T14:28:03.491Z,5.40
2023-02-05T14:30:30.170Z,5.40
2023-02-05T14:32:59.359Z,5.38
2023-02-05T14:35:39.523Z,5.40
2023-02-05T14:38:23.481Z,5.35
2023-02-05T14:41:19.967Z,5.39
2023-02-05T14:43:57.243Z,5.31
2023-02-05T14:46:30.713Z,5.33
2023-02-05T14:49:00.275Z,5.28
2023-02-05T14:51:37.071Z,5.29
2023-02-05T14:54:19.872Z,5.31
2023-02-05T14:56:51.640Z,5.27
2023-02-05T14:59:52.905Z,5.23
2023-02-05T15:02:57.145Z,5.18
2023-02-05T15:05:42.750Z,5.17
2023-02-05T15:08:15.413Z,5.19
2023-02-05T15:11:06.334Z,5.19
2023-02-05T15:13:33.574Z,5.16
2023-02-05T15:16:19.477Z,5.21
2023-02-05T15:18:58.866Z,5.19
2023-02-05T15:21:30.366Z,5.16
2023-02-05T15:24:14.348Z,5.20
2023-02-05T15:27:05.307Z,5.12
2023-02-05T15:29:40.381Z,5.13
2023-02-05T15:32:27.540Z,5.12
2023-02-05T15:35:18.110Z,5.14
2023-02-05T15:38:20.167Z,5.09
2023-02-05T15:40:47.021Z,5.07
2023-02-05T15:43:19.803Z,5.07
2023-02-05T15:45:47.020Z,5.13
2023-02-05T15:48:18.040Z,5.13
2023-02-05T15:50:58.573Z,5.05
2023-02-05T15:53:36.309Z,5.11
2023-02-05T15:56:14.258Z,5.06
2023-02-05T15:58:50.685Z,4.99
2023-02-05T16:01:34.431Z,5.04
2023-02-05T16:04:01.367Z,4.92
2023-02-05T16:06:29.974Z,4.96
2023-02-05T16:08:57.389Z,4.91
2023-02-05T16:11:33.180Z,4.88
2023-02-05T16:14:23.634Z,4.84
2023-02-05T16:17:09.886Z,4.77
2023-02-05T16:19:46.578Z,4.84
2023-02-05T16:22:25.233Z,4.82
2023-02-05T16:24:59.316Z,4.82
2023-02-05T16:27:35.761Z,4.83
2023-02-05T16:30:08.233Z,4.79
2023-02-05T16:32:42.757Z,4.79
2023-02-05T16:35:26.577Z,4.82
2023-02-05T16:37:53.009Z,4.77
2023-02-05T16:40:36.740Z,4.77
2023-02-05T16:43:20.763Z,4.81
2023-02-05T16:46:06.291Z,4.82
2023-02-05T16:48:45.038Z,4.75
2023-02-05T16:51:36.839Z,4.76
2023-02-05T16:54:12.574Z,4.76
2023-02-05T16:56:46.725Z,4.68
2023-02-05T16:59:23.774Z,4.68
2023-02-05T17:01:52.822Z,4.74
2023-02-05T17:04:35.379Z,4.67
2023-02-05T17:07:04.344Z,4.70
2023-02-05T17:09:34.386Z,4.65
2023-02-05T17:12:20.136Z,4.65
2023-02-05T17:15:02.385Z,4.72
2023-02-05T17:17:31.010Z,4.68
2023-02-05T17:20:09.554Z,4.60
2023-02-05T17:22:36.261Z,4.65
2023-02-05T17:25:05.427Z,4.64
2023-02-05T17:27:38.842Z,4.66
2023-02-05T17:30:14.448Z,4.62
2023-02-05T17:32:40.836Z,4.61
2023-02-05T17:35:18.830Z,4.62
2023-02-05T17:37:45.218Z,4.56
2023-02-05T17:40:15.241Z,4.61
2023-02-05T17:42:42.724Z,4.64
2023-02-05T17:45:34.486Z,4.59
2023-02-05T17:48:01.190Z,4.63
2023-02-05T17:50:28.153Z,4.64
2023-02-05T17:52:55.190Z,4.63
2023-02-05T17:55:22.781Z,4.76
2023-02-05T17:57:50.503Z,4.70
2023-02-05T18:00:20.665Z,4.71
2023-02-05T18:02:47.548Z,4.61
2023-02-05T18:05:14.607Z,4.64
2023-02-05T18:07:56.515Z,4.64
2023-02-05T18:10:29.544Z,4.74
2023-02-05T18:12:56.397Z,4.68
2023-02-05T18:15:25.052Z,4.59
2023-02-05T18:17:51.825Z,4.61
2023-02-05T18:20:20.995Z,4.75
2023-02-05T18:22:49.313Z,4.69
2023-02-05T18:25:16.300Z,4.79
2023-02-05T18:27:43.236Z,4.73
2023-02-05T18:30:10.452Z,4.68
2023-02-05T18:32:37.358Z,4.67
2023-02-05T18:35:04.142Z,4.58
2023-02-05T18:37:30.707Z,4.62
2023-02-05T18:39:57.518Z,4.58
2023-02-05T18:42:24.008Z,4.56
2023-02-05T18:44:50.543Z,4.47
2023-02-05T18:47:16.907Z,4.38
2023-02-05T18:49:45.071Z,4.50
2023-02-05T18:52:13.810Z,4.48
2023-02-05T18:54:40.616Z,4.43
2023-02-05T18:57:07.329Z,4.37
2023-02-05T18:59:33.972Z,4.33
2023-02-05T19:02:00.559Z,4.32
2023-02-05T19:04:27.856Z,4.35
2023-02-05T19:06:54.794Z,4.37
2023-02-05T19:09:22.995Z,4.40
2023-02-05T19:11:50.919Z,4.43
2023-02-05T19:14:20.498Z,4.42
2023-02-05T19:16:48.795Z,4.41
2023-02-05T19:19:20.054Z,4.41
2023-02-05T19:21:48.780Z,4.30
2023-02-05T19:24:17.208Z,4.34
2023-02-05T19:26:44.621Z,4.35
2023-02-05T19:29:14.647Z,4.36
2023-02-05T19:31:41.657Z,4.31
2023-02-05T19:34:08.557Z,4.26
2023-02-05T19:36:35.257Z,4.25
2023-02-05T19:39:04.457Z,4.30
2023-02-05T19:41:32.570Z,4.25
2023-02-05T19:44:02.303Z,4.38
2023-02-05T19:46:34.919Z,4.36
2023-02-05T19:49:04.909Z,4.44
2023-02-05T19:51:32.161Z,4.35
2023-02-05T19:53:59.834Z,4.38
2023-02-05T19:56:26.709Z,4.39
2023-02-05T19:58:55.500Z,4.35
2023-02-05T20:01:31.557Z,4.37
2023-02-05T20:04:05.524Z,4.40
2023-02-05T20:06:32.076Z,4.36
2023-02-05T20:09:01.264Z,4.41
2023-02-05T20:11:30.268Z,4.43
2023-02-05T20:14:00.929Z,4.38
2023-02-05T20:16:27.446Z,4.42
2023-02-05T20:18:56.286Z,4.39
2023-02-05T20:21:23.238Z,4.29
2023-02-05T20:23:49.775Z,4.35
2023-02-05T20:26:22.210Z,4.30
2023-02-05T20:29:15.292Z,4.31
2023-02-05T20:31:48.119Z,4.36
2023-02-05T20:34:22.710Z,4.36
2023-02-05T20:36:55.018Z,4.32
2023-02-05T20:39:24.668Z,4.31
2023-02-05T20:41:52.249Z,4.31
2023-02-05T20:44:19.762Z,4.31
2023-02-05T20:46:46.317Z,4.27
2023-02-05T20:49:14.090Z,4.26
2023-02-05T20:51:43.592Z,4.25
2023-02-05T20:54:11.083Z,4.23
2023-02-05T20:56:37.671Z,4.24
2023-02-05T20:59:06.378Z,4.42
2023-02-05T21:01:34.655Z,4.31
2023-02-05T21:04:03.065Z,4.30
2023-02-05T21:06:32.106Z,4.27
2023-02-05T21:08:59.048Z,4.24
2023-02-05T21:11:29.693Z,4.44
2023-02-05T21:13:56.631Z,4.37
2023-02-05T21:16:25.683Z,4.33
2023-02-05T21:18:52.889Z,4.39
2023-02-05T21:21:21.368Z,4.31
2023-02-05T21:23:48.435Z,4.32
2023-02-05T21:26:27.500Z,4.32
2023-02-05T21:28:55.466Z,4.30
2023-02-05T21:31:25.486Z,4.34
2023-02-05T21:33:51.914Z,4.25
2023-02-05T21:36:20.602Z,4.29
2023-02-05T21:38:47.260Z,4.28
2023-02-05T21:41:16.297Z,4.30
2023-02-05T21:43:43.226Z,4.28
2023-02-05T21:46:12.136Z,4.28
2023-02-05T21:48:39.505Z,4.26
2023-02-05T21:51:11.357Z,4.28
2023-02-05T21:53:38.214Z,4.28
2023-02-05T21:56:06.674Z,4.30
2023-02-05T21:58:35.628Z,4.28
2023-02-05T22:01:15.244Z,4.20
2023-02-05T22:03:43.504Z,4.20
2023-02-05T22:06:10.690Z,4.21
2023-02-05T22:08:38.782Z,4.14
2023-02-05T22:11:08.913Z,4.26
2023-02-05T22:13:40.748Z,4.25
2023-02-05T22:16:10.681Z,4.25
2023-02-05T22:18:38.216Z,4.20
2023-02-05T22:21:13.253Z,4.20
2023-02-05T22:23:40.216Z,4.17
2023-02-05T22:26:10.010Z,4.16
2023-02-05T22:28:37.220Z,4.18
2023-02-05T22:31:09.962Z,4.18
2023-02-05T22:33:39.657Z,4.16
2023-02-05T22:36:08.127Z,4.25
2023-02-05T22:38:36.998Z,4.17
2023-02-05T22:41:08.519Z,4.15
2023-02-05T22:43:35.575Z,4.12
2023-02-05T22:46:06.373Z,4.06
2023-02-05T22:48:37.571Z,4.05
2023-02-05T22:51:05.775Z,4.09
2023-02-05T22:53:32.411Z,4.02
2023-02-05T22:56:10.614Z,4.00
2023-02-05T22:58:42.829Z,3.96
2023-02-05T23:01:10.028Z,3.94
2023-02-05T23:03:38.228Z,4.03
2023-02-05T23:06:11.600Z,3.99
2023-02-05T23:08:38.573Z,3.97
2023-02-05T23:11:08.111Z,3.92
2023-02-05T23:13:34.703Z,3.98
2023-02-05T23:16:09.090Z,3.99
2023-02-05T23:18:36.186Z,3.97
2023-02-05T23:21:18.206Z,4.01
2023-02-05T23:23:44.934Z,4.03
2023-02-05T23:26:19.473Z,3.95
2023-02-05T23:28:46.923Z,3.98
2023-02-05T23:31:14.685Z,3.93
2023-02-05T23:33:41.134Z,3.92
2023-02-05T23:36:08.908Z,3.97
2023-02-05T23:38:35.776Z,3.97
2023-02-05T23:41:03.095Z,3.96
2023-02-05T23:43:32.565Z,3.91
2023-02-05T23:45:59.525Z,4.00
2023-02-05T23:48:26.209Z,3.95
2023-02-05T23:50:55.007Z,3.97
2023-02-05T23:53:21.520Z,4.04
2023-02-05T23:55:50.055Z,3.93
2023-02-05T23:58:18.567Z,3.95
